sensor_id;sensor_type;location;lat;lon;timestamp;temperature;humidity
16249;DHT22;8232;51.678;6.610;2022-09-23T00:01:58;9.70;1.00
16249;DHT22;8232;51.678;6.610;2022-09-23T00:04:26;9.60;1.00
16249;DHT22;8232;51.678;6.610;2022-09-23T00:06:54;9.60;1.00
16249;DHT22;8232;51.678;6.610;2022-09-23T00:09:21;9.50;1.00
16249;DHT22;8232;51.678;6.610;2022-09-23T00:11:48;9.50;1.00
16249;DHT22;8232;51.678;6.610;2022-09-23T00:14:15;9.50;1.00
16249;DHT22;8232;51.678;6.610;2022-09-23T00:16:44;9.50;1.00
16249;DHT22;8232;51.678;6.610;2022-09-23T00:22:33;9.50;1.00
16249;DHT22;8232;51.678;6.610;2022-09-23T00:25:00;9.60;1.00
16249;DHT22;8232;51.678;6.610;2022-09-23T00:27:27;9.50;1.00
16249;DHT22;8232;51.678;6.610;2022-09-23T00:29:55;9.50;1.00
16249;DHT22;8232;51.678;6.610;2022-09-23T00:32:23;9.60;1.00
16249;DHT22;8232;51.678;6.610;2022-09-23T00:34:50;9.50;1.00
16249;DHT22;8232;51.678;6.610;2022-09-23T00:37:17;9.50;1.00
16249;DHT22;8232;51.678;6.610;2022-09-23T00:39:44;9.60;1.00
16249;DHT22;8232;51.678;6.610;2022-09-23T00:42:13;9.60;1.00
16249;DHT22;8232;51.678;6.610;2022-09-23T00:44:47;9.60;1.00
16249;DHT22;8232;51.678;6.610;2022-09-23T00:47:19;9.60;1.00
16249;DHT22;8232;51.678;6.610;2022-09-23T00:49:53;9.60;1.00
16249;DHT22;8232;51.678;6.610;2022-09-23T00:52:23;9.60;1.00
16249;DHT22;8232;51.678;6.610;2022-09-23T00:54:51;9.60;1.00
16249;DHT22;8232;51.678;6.610;2022-09-23T00:57:21;9.60;1.00
16249;DHT22;8232;51.678;6.610;2022-09-23T00:59:49;9.70;1.00
16249;DHT22;8232;51.678;6.610;2022-09-23T01:02:17;9.70;1.00
16249;DHT22;8232;51.678;6.610;2022-09-23T01:04:48;9.70;1.00
16249;DHT22;8232;51.678;6.610;2022-09-23T01:07:16;9.70;1.00
16249;DHT22;8232;51.678;6.610;2022-09-23T01:09:43;9.70;1.00
16249;DHT22;8232;51.678;6.610;2022-09-23T01:12:19;9.80;1.00
16249;DHT22;8232;51.678;6.610;2022-09-23T01:14:55;10.00;1.00
16249;DHT22;8232;51.678;6.610;2022-09-23T01:17:31;10.00;1.00
16249;DHT22;8232;51.678;6.610;2022-09-23T01:20:26;10.40;1.00
16249;DHT22;8232;51.678;6.610;2022-09-23T01:23:06;10.10;1.00
16249;DHT22;8232;51.678;6.610;2022-09-23T01:26:02;10.30;1.00
16249;DHT22;8232;51.678;6.610;2022-09-23T01:28:48;10.20;1.00
16249;DHT22;8232;51.678;6.610;2022-09-23T01:31:23;10.40;1.00
16249;DHT22;8232;51.678;6.610;2022-09-23T01:33:54;10.10;1.00
16249;DHT22;8232;51.678;6.610;2022-09-23T01:36:24;10.40;1.00
16249;DHT22;8232;51.678;6.610;2022-09-23T01:38:56;10.10;1.00
16249;DHT22;8232;51.678;6.610;2022-09-23T01:41:37;10.40;1.00
16249;DHT22;8232;51.678;6.610;2022-09-23T01:44:11;10.30;1.00
16249;DHT22;8232;51.678;6.610;2022-09-23T01:46:45;10.60;1.00
16249;DHT22;8232;51.678;6.610;2022-09-23T01:49:17;10.20;1.00
16249;DHT22;8232;51.678;6.610;2022-09-23T01:51:48;10.60;1.00
16249;DHT22;8232;51.678;6.610;2022-09-23T01:54:21;10.80;1.00
16249;DHT22;8232;51.678;6.610;2022-09-23T01:56:52;10.60;1.00
16249;DHT22;8232;51.678;6.610;2022-09-23T01:59:23;10.30;1.00
16249;DHT22;8232;51.678;6.610;2022-09-23T02:01:54;10.40;1.00
16249;DHT22;8232;51.678;6.610;2022-09-23T02:04:26;10.50;1.00
16249;DHT22;8232;51.678;6.610;2022-09-23T02:06:59;10.20;1.00
16249;DHT22;8232;51.678;6.610;2022-09-23T02:09:34;10.20;1.00
16249;DHT22;8232;51.678;6.610;2022-09-23T02:12:05;10.20;1.00
16249;DHT22;8232;51.678;6.610;2022-09-23T02:14:41;10.00;1.00
16249;DHT22;8232;51.678;6.610;2022-09-23T02:17:11;9.90;1.00
16249;DHT22;8232;51.678;6.610;2022-09-23T02:19:44;9.90;1.00
16249;DHT22;8232;51.678;6.610;2022-09-23T02:22:15;10.00;1.00
16249;DHT22;8232;51.678;6.610;2022-09-23T02:24:44;10.10;1.00
16249;DHT22;8232;51.678;6.610;2022-09-23T02:27:17;10.10;1.00
16249;DHT22;8232;51.678;6.610;2022-09-23T02:29:51;10.30;1.00
16249;DHT22;8232;51.678;6.610;2022-09-23T02:32:26;10.40;1.00
16249;DHT22;8232;51.678;6.610;2022-09-23T02:35:00;10.50;1.00
16249;DHT22;8232;51.678;6.610;2022-09-23T02:37:37;10.80;1.00
16249;DHT22;8232;51.678;6.610;2022-09-23T02:40:13;10.90;1.00
16249;DHT22;8232;51.678;6.610;2022-09-23T02:42:48;10.80;1.00
16249;DHT22;8232;51.678;6.610;2022-09-23T02:45:18;10.70;1.00
16249;DHT22;8232;51.678;6.610;2022-09-23T02:47:49;10.90;1.00
16249;DHT22;8232;51.678;6.610;2022-09-23T02:50:17;10.90;1.00
16249;DHT22;8232;51.678;6.610;2022-09-23T02:52:45;10.90;1.00
16249;DHT22;8232;51.678;6.610;2022-09-23T02:55:15;10.80;1.00
16249;DHT22;8232;51.678;6.610;2022-09-23T02:57:43;10.90;1.00
16249;DHT22;8232;51.678;6.610;2022-09-23T03:00:11;11.00;1.00
16249;DHT22;8232;51.678;6.610;2022-09-23T03:03:04;10.90;1.00
16249;DHT22;8232;51.678;6.610;2022-09-23T03:05:40;10.80;1.00
16249;DHT22;8232;51.678;6.610;2022-09-23T03:08:22;10.80;1.00
16249;DHT22;8232;51.678;6.610;2022-09-23T03:10:58;10.80;1.00
16249;DHT22;8232;51.678;6.610;2022-09-23T03:13:32;10.70;1.00
16249;DHT22;8232;51.678;6.610;2022-09-23T03:16:10;10.50;1.00
16249;DHT22;8232;51.678;6.610;2022-09-23T03:18:43;10.10;1.00
16249;DHT22;8232;51.678;6.610;2022-09-23T03:21:15;9.90;1.00
16249;DHT22;8232;51.678;6.610;2022-09-23T03:23:44;9.70;1.00
16249;DHT22;8232;51.678;6.610;2022-09-23T03:26:16;9.50;1.00
16249;DHT22;8232;51.678;6.610;2022-09-23T03:28:45;9.40;1.00
16249;DHT22;8232;51.678;6.610;2022-09-23T03:31:13;9.50;1.00
16249;DHT22;8232;51.678;6.610;2022-09-23T03:33:47;9.70;1.00
16249;DHT22;8232;51.678;6.610;2022-09-23T03:36:17;9.70;1.00
16249;DHT22;8232;51.678;6.610;2022-09-23T03:39:05;9.60;1.00
16249;DHT22;8232;51.678;6.610;2022-09-23T03:41:37;9.80;1.00
16249;DHT22;8232;51.678;6.610;2022-09-23T03:44:05;9.60;1.00
16249;DHT22;8232;51.678;6.610;2022-09-23T03:46:33;9.70;1.00
16249;DHT22;8232;51.678;6.610;2022-09-23T03:49:12;9.60;1.00
16249;DHT22;8232;51.678;6.610;2022-09-23T03:51:40;9.50;1.00
16249;DHT22;8232;51.678;6.610;2022-09-23T03:54:07;9.50;1.00
16249;DHT22;8232;51.678;6.610;2022-09-23T03:56:34;9.40;1.00
16249;DHT22;8232;51.678;6.610;2022-09-23T03:59:01;9.90;1.00
16249;DHT22;8232;51.678;6.610;2022-09-23T04:01:28;10.40;1.00
16249;DHT22;8232;51.678;6.610;2022-09-23T04:03:55;10.40;1.00
16249;DHT22;8232;51.678;6.610;2022-09-23T04:06:23;9.70;1.00
16249;DHT22;8232;51.678;6.610;2022-09-23T04:08:50;10.50;1.00
16249;DHT22;8232;51.678;6.610;2022-09-23T04:11:16;10.40;1.00
16249;DHT22;8232;51.678;6.610;2022-09-23T04:13:43;10.40;1.00
16249;DHT22;8232;51.678;6.610;2022-09-23T04:16:10;10.40;1.00
16249;DHT22;8232;51.678;6.610;2022-09-23T04:18:37;10.70;1.00
16249;DHT22;8232;51.678;6.610;2022-09-23T04:21:04;10.80;1.00
16249;DHT22;8232;51.678;6.610;2022-09-23T04:23:32;10.60;1.00
16249;DHT22;8232;51.678;6.610;2022-09-23T04:25:58;10.60;1.00
16249;DHT22;8232;51.678;6.610;2022-09-23T04:28:25;10.60;1.00
16249;DHT22;8232;51.678;6.610;2022-09-23T04:30:52;10.70;1.00
16249;DHT22;8232;51.678;6.610;2022-09-23T04:33:20;10.70;1.00
16249;DHT22;8232;51.678;6.610;2022-09-23T04:35:49;10.70;1.00
16249;DHT22;8232;51.678;6.610;2022-09-23T04:38:17;10.70;1.00
16249;DHT22;8232;51.678;6.610;2022-09-23T04:40:45;10.70;1.00
16249;DHT22;8232;51.678;6.610;2022-09-23T04:43:11;10.70;1.00
16249;DHT22;8232;51.678;6.610;2022-09-23T04:45:39;10.60;1.00
16249;DHT22;8232;51.678;6.610;2022-09-23T04:48:05;10.70;1.00
16249;DHT22;8232;51.678;6.610;2022-09-23T04:50:34;10.60;1.00
16249;DHT22;8232;51.678;6.610;2022-09-23T04:53:01;10.60;1.00
16249;DHT22;8232;51.678;6.610;2022-09-23T04:55:28;10.50;1.00
16249;DHT22;8232;51.678;6.610;2022-09-23T04:57:56;10.50;1.00
16249;DHT22;8232;51.678;6.610;2022-09-23T05:00:23;10.40;1.00
16249;DHT22;8232;51.678;6.610;2022-09-23T05:02:51;10.30;1.00
16249;DHT22;8232;51.678;6.610;2022-09-23T05:05:18;10.10;1.00
16249;DHT22;8232;51.678;6.610;2022-09-23T05:07:45;10.40;1.00
16249;DHT22;8232;51.678;6.610;2022-09-23T05:10:12;10.40;1.00
16249;DHT22;8232;51.678;6.610;2022-09-23T05:12:39;10.00;1.00
16249;DHT22;8232;51.678;6.610;2022-09-23T05:15:08;9.90;1.00
16249;DHT22;8232;51.678;6.610;2022-09-23T05:17:34;10.00;1.00
16249;DHT22;8232;51.678;6.610;2022-09-23T05:20:02;10.10;1.00
16249;DHT22;8232;51.678;6.610;2022-09-23T05:22:29;9.70;1.00
16249;DHT22;8232;51.678;6.610;2022-09-23T05:24:55;9.80;1.00
16249;DHT22;8232;51.678;6.610;2022-09-23T05:27:24;10.00;1.00
16249;DHT22;8232;51.678;6.610;2022-09-23T05:29:51;10.10;1.00
16249;DHT22;8232;51.678;6.610;2022-09-23T05:32:19;10.20;1.00
16249;DHT22;8232;51.678;6.610;2022-09-23T05:34:46;10.20;1.00
16249;DHT22;8232;51.678;6.610;2022-09-23T05:37:13;10.10;1.00
16249;DHT22;8232;51.678;6.610;2022-09-23T05:39:40;10.10;1.00
16249;DHT22;8232;51.678;6.610;2022-09-23T05:42:06;9.90;1.00
16249;DHT22;8232;51.678;6.610;2022-09-23T05:44:34;9.80;1.00
16249;DHT22;8232;51.678;6.610;2022-09-23T05:47:01;9.80;1.00
16249;DHT22;8232;51.678;6.610;2022-09-23T05:49:29;9.90;1.00
16249;DHT22;8232;51.678;6.610;2022-09-23T05:51:55;10.10;1.00
16249;DHT22;8232;51.678;6.610;2022-09-23T05:54:22;10.10;1.00
16249;DHT22;8232;51.678;6.610;2022-09-23T05:56:49;10.20;1.00
16249;DHT22;8232;51.678;6.610;2022-09-23T05:59:16;10.40;1.00
16249;DHT22;8232;51.678;6.610;2022-09-23T06:01:43;10.70;1.00
16249;DHT22;8232;51.678;6.610;2022-09-23T06:04:11;10.80;1.00
16249;DHT22;8232;51.678;6.610;2022-09-23T06:06:41;10.90;1.00
16249;DHT22;8232;51.678;6.610;2022-09-23T06:09:10;11.00;1.00
16249;DHT22;8232;51.678;6.610;2022-09-23T06:11:38;11.00;1.00
16249;DHT22;8232;51.678;6.610;2022-09-23T06:14:06;11.20;1.00
16249;DHT22;8232;51.678;6.610;2022-09-23T06:16:34;11.30;1.00
16249;DHT22;8232;51.678;6.610;2022-09-23T06:19:03;11.40;1.00
16249;DHT22;8232;51.678;6.610;2022-09-23T06:21:31;11.40;1.00
16249;DHT22;8232;51.678;6.610;2022-09-23T06:24:00;11.50;1.00
16249;DHT22;8232;51.678;6.610;2022-09-23T06:26:27;11.60;1.00
16249;DHT22;8232;51.678;6.610;2022-09-23T06:28:58;11.70;1.00
16249;DHT22;8232;51.678;6.610;2022-09-23T06:31:25;11.80;1.00
16249;DHT22;8232;51.678;6.610;2022-09-23T06:33:52;11.80;1.00
16249;DHT22;8232;51.678;6.610;2022-09-23T06:36:19;11.90;1.00
16249;DHT22;8232;51.678;6.610;2022-09-23T06:38:46;12.00;1.00
16249;DHT22;8232;51.678;6.610;2022-09-23T06:41:15;12.00;1.00
16249;DHT22;8232;51.678;6.610;2022-09-23T06:43:41;12.00;1.00
16249;DHT22;8232;51.678;6.610;2022-09-23T06:46:13;12.10;1.00
16249;DHT22;8232;51.678;6.610;2022-09-23T06:48:41;12.00;1.00
16249;DHT22;8232;51.678;6.610;2022-09-23T06:51:10;12.00;1.00
16249;DHT22;8232;51.678;6.610;2022-09-23T06:53:46;12.00;1.00
16249;DHT22;8232;51.678;6.610;2022-09-23T06:56:16;12.00;1.00
16249;DHT22;8232;51.678;6.610;2022-09-23T06:58:44;12.10;1.00
16249;DHT22;8232;51.678;6.610;2022-09-23T07:01:13;12.10;1.00
16249;DHT22;8232;51.678;6.610;2022-09-23T07:03:41;12.10;1.00
16249;DHT22;8232;51.678;6.610;2022-09-23T07:06:07;12.10;1.00
16249;DHT22;8232;51.678;6.610;2022-09-23T07:08:35;12.10;1.00
16249;DHT22;8232;51.678;6.610;2022-09-23T07:11:03;12.20;1.00
16249;DHT22;8232;51.678;6.610;2022-09-23T07:13:32;12.40;1.00
16249;DHT22;8232;51.678;6.610;2022-09-23T07:16:01;12.40;1.00
16249;DHT22;8232;51.678;6.610;2022-09-23T07:18:30;12.50;1.00
16249;DHT22;8232;51.678;6.610;2022-09-23T07:21:05;12.30;1.00
16249;DHT22;8232;51.678;6.610;2022-09-23T07:23:33;12.50;1.00
16249;DHT22;8232;51.678;6.610;2022-09-23T07:26:00;12.40;1.00
16249;DHT22;8232;51.678;6.610;2022-09-23T07:28:28;12.50;1.00
16249;DHT22;8232;51.678;6.610;2022-09-23T07:31:01;12.60;1.00
16249;DHT22;8232;51.678;6.610;2022-09-23T07:33:28;12.70;1.00
16249;DHT22;8232;51.678;6.610;2022-09-23T07:35:56;12.70;1.00
16249;DHT22;8232;51.678;6.610;2022-09-23T07:38:23;12.70;1.00
16249;DHT22;8232;51.678;6.610;2022-09-23T07:40:59;12.80;1.00
16249;DHT22;8232;51.678;6.610;2022-09-23T07:43:27;12.80;1.00
16249;DHT22;8232;51.678;6.610;2022-09-23T07:45:59;12.80;1.00
16249;DHT22;8232;51.678;6.610;2022-09-23T07:48:26;12.80;1.00
16249;DHT22;8232;51.678;6.610;2022-09-23T07:50:54;12.80;1.00
16249;DHT22;8232;51.678;6.610;2022-09-23T07:53:21;12.80;1.00
16249;DHT22;8232;51.678;6.610;2022-09-23T07:55:52;12.80;1.00
16249;DHT22;8232;51.678;6.610;2022-09-23T07:58:19;12.90;1.00
16249;DHT22;8232;51.678;6.610;2022-09-23T08:00:46;12.90;1.00
16249;DHT22;8232;51.678;6.610;2022-09-23T08:03:14;12.90;1.00
16249;DHT22;8232;51.678;6.610;2022-09-23T08:05:41;13.10;1.00
16249;DHT22;8232;51.678;6.610;2022-09-23T08:08:07;13.20;1.00
16249;DHT22;8232;51.678;6.610;2022-09-23T08:10:34;13.30;1.00
16249;DHT22;8232;51.678;6.610;2022-09-23T08:13:01;13.40;1.00
16249;DHT22;8232;51.678;6.610;2022-09-23T08:15:28;13.40;1.00
16249;DHT22;8232;51.678;6.610;2022-09-23T08:17:57;13.50;1.00
16249;DHT22;8232;51.678;6.610;2022-09-23T08:20:26;13.40;1.00
16249;DHT22;8232;51.678;6.610;2022-09-23T08:23:12;13.40;1.00
16249;DHT22;8232;51.678;6.610;2022-09-23T08:25:40;13.40;1.00
16249;DHT22;8232;51.678;6.610;2022-09-23T08:28:07;13.60;1.00
16249;DHT22;8232;51.678;6.610;2022-09-23T08:30:34;13.80;1.00
16249;DHT22;8232;51.678;6.610;2022-09-23T08:33:01;13.80;1.00
16249;DHT22;8232;51.678;6.610;2022-09-23T08:35:29;14.10;1.00
16249;DHT22;8232;51.678;6.610;2022-09-23T08:37:57;14.00;1.00
16249;DHT22;8232;51.678;6.610;2022-09-23T08:40:23;14.40;1.00
16249;DHT22;8232;51.678;6.610;2022-09-23T08:42:50;14.70;1.00
16249;DHT22;8232;51.678;6.610;2022-09-23T08:45:20;15.00;1.00
16249;DHT22;8232;51.678;6.610;2022-09-23T08:47:51;15.80;1.00
16249;DHT22;8232;51.678;6.610;2022-09-23T08:50:21;16.40;1.00
16249;DHT22;8232;51.678;6.610;2022-09-23T08:52:53;17.70;1.00
16249;DHT22;8232;51.678;6.610;2022-09-23T08:55:26;17.60;1.00
16249;DHT22;8232;51.678;6.610;2022-09-23T08:58:05;17.70;1.00
16249;DHT22;8232;51.678;6.610;2022-09-23T09:00:40;18.40;1.00
16249;DHT22;8232;51.678;6.610;2022-09-23T09:03:18;18.60;1.00
16249;DHT22;8232;51.678;6.610;2022-09-23T09:05:46;16.90;1.00
16249;DHT22;8232;51.678;6.610;2022-09-23T09:08:18;17.10;1.00
16249;DHT22;8232;51.678;6.610;2022-09-23T09:10:52;16.60;1.00
16249;DHT22;8232;51.678;6.610;2022-09-23T09:13:27;16.50;1.00
16249;DHT22;8232;51.678;6.610;2022-09-23T09:16:14;17.00;1.00
16249;DHT22;8232;51.678;6.610;2022-09-23T09:18:51;17.40;1.00
16249;DHT22;8232;51.678;6.610;2022-09-23T09:21:22;16.70;1.00
16249;DHT22;8232;51.678;6.610;2022-09-23T09:23:55;16.40;1.00
16249;DHT22;8232;51.678;6.610;2022-09-23T09:26:25;16.20;1.00
16249;DHT22;8232;51.678;6.610;2022-09-23T09:28:55;15.90;1.00
16249;DHT22;8232;51.678;6.610;2022-09-23T09:31:30;16.10;1.00
16249;DHT22;8232;51.678;6.610;2022-09-23T09:34:01;16.50;1.00
16249;DHT22;8232;51.678;6.610;2022-09-23T09:36:39;16.50;1.00
16249;DHT22;8232;51.678;6.610;2022-09-23T09:39:10;16.30;1.00
16249;DHT22;8232;51.678;6.610;2022-09-23T09:41:39;16.60;1.00
16249;DHT22;8232;51.678;6.610;2022-09-23T09:44:18;16.60;1.00
16249;DHT22;8232;51.678;6.610;2022-09-23T09:46:56;16.80;1.00
16249;DHT22;8232;51.678;6.610;2022-09-23T09:49:30;17.10;1.00
16249;DHT22;8232;51.678;6.610;2022-09-23T09:52:19;17.10;1.00
16249;DHT22;8232;51.678;6.610;2022-09-23T09:54:47;17.30;1.00
16249;DHT22;8232;51.678;6.610;2022-09-23T09:57:21;17.40;1.00
16249;DHT22;8232;51.678;6.610;2022-09-23T09:59:51;17.00;1.00
16249;DHT22;8232;51.678;6.610;2022-09-23T10:02:24;17.20;1.00
16249;DHT22;8232;51.678;6.610;2022-09-23T10:04:58;17.60;1.00
16249;DHT22;8232;51.678;6.610;2022-09-23T10:07:27;18.20;1.00
16249;DHT22;8232;51.678;6.610;2022-09-23T10:09:56;18.00;1.00
16249;DHT22;8232;51.678;6.610;2022-09-23T10:12:24;18.00;1.00
16249;DHT22;8232;51.678;6.610;2022-09-23T10:14:54;17.40;1.00
16249;DHT22;8232;51.678;6.610;2022-09-23T10:17:31;17.70;1.00
16249;DHT22;8232;51.678;6.610;2022-09-23T10:19:59;17.40;1.00
16249;DHT22;8232;51.678;6.610;2022-09-23T10:22:31;18.00;1.00
16249;DHT22;8232;51.678;6.610;2022-09-23T10:25:02;17.20;1.00
16249;DHT22;8232;51.678;6.610;2022-09-23T10:27:34;17.70;1.00
16249;DHT22;8232;51.678;6.610;2022-09-23T10:30:03;18.50;1.00
16249;DHT22;8232;51.678;6.610;2022-09-23T10:32:31;19.00;1.00
16249;DHT22;8232;51.678;6.610;2022-09-23T10:35:10;18.70;1.00
16249;DHT22;8232;51.678;6.610;2022-09-23T10:37:39;19.30;1.00
16249;DHT22;8232;51.678;6.610;2022-09-23T10:40:20;19.20;1.00
16249;DHT22;8232;51.678;6.610;2022-09-23T10:43:25;19.90;1.00
16249;DHT22;8232;51.678;6.610;2022-09-23T10:46:17;20.40;1.00
16249;DHT22;8232;51.678;6.610;2022-09-23T10:49:16;19.80;1.00
16249;DHT22;8232;51.678;6.610;2022-09-23T10:51:57;21.00;1.00
16249;DHT22;8232;51.678;6.610;2022-09-23T10:54:34;21.60;1.00
16249;DHT22;8232;51.678;6.610;2022-09-23T10:57:10;20.90;1.00
16249;DHT22;8232;51.678;6.610;2022-09-23T11:00:01;21.30;1.00
16249;DHT22;8232;51.678;6.610;2022-09-23T11:02:40;22.60;1.00
16249;DHT22;8232;51.678;6.610;2022-09-23T11:05:28;21.30;1.00
16249;DHT22;8232;51.678;6.610;2022-09-23T11:08:04;19.70;1.00
16249;DHT22;8232;51.678;6.610;2022-09-23T11:11:01;19.80;1.00
16249;DHT22;8232;51.678;6.610;2022-09-23T11:13:45;19.10;1.00
16249;DHT22;8232;51.678;6.610;2022-09-23T11:16:23;19.50;1.00
16249;DHT22;8232;51.678;6.610;2022-09-23T11:19:16;19.30;1.00
16249;DHT22;8232;51.678;6.610;2022-09-23T11:22:05;19.70;1.00
16249;DHT22;8232;51.678;6.610;2022-09-23T11:24:46;20.00;1.00
16249;DHT22;8232;51.678;6.610;2022-09-23T11:27:27;19.60;1.00
16249;DHT22;8232;51.678;6.610;2022-09-23T11:30:08;19.00;1.00
16249;DHT22;8232;51.678;6.610;2022-09-23T11:35:47;19.90;1.00
16249;DHT22;8232;51.678;6.610;2022-09-23T11:38:18;19.80;1.00
16249;DHT22;8232;51.678;6.610;2022-09-23T11:40:51;19.10;1.00
16249;DHT22;8232;51.678;6.610;2022-09-23T11:43:22;19.20;1.00
16249;DHT22;8232;51.678;6.610;2022-09-23T11:45:52;19.00;1.00
16249;DHT22;8232;51.678;6.610;2022-09-23T11:48:27;18.70;1.00
16249;DHT22;8232;51.678;6.610;2022-09-23T11:50:58;18.90;1.00
16249;DHT22;8232;51.678;6.610;2022-09-23T11:53:35;19.20;1.00
16249;DHT22;8232;51.678;6.610;2022-09-23T11:56:06;19.50;1.00
16249;DHT22;8232;51.678;6.610;2022-09-23T11:58:38;19.10;1.00
16249;DHT22;8232;51.678;6.610;2022-09-23T12:01:12;19.00;1.00
16249;DHT22;8232;51.678;6.610;2022-09-23T12:03:47;18.90;1.00
16249;DHT22;8232;51.678;6.610;2022-09-23T12:06:19;18.90;1.00
16249;DHT22;8232;51.678;6.610;2022-09-23T12:08:50;18.90;1.00
16249;DHT22;8232;51.678;6.610;2022-09-23T12:11:25;18.60;1.00
16249;DHT22;8232;51.678;6.610;2022-09-23T12:14:06;18.20;1.00
16249;DHT22;8232;51.678;6.610;2022-09-23T12:16:56;17.90;1.00
16249;DHT22;8232;51.678;6.610;2022-09-23T12:19:38;18.20;1.00
16249;DHT22;8232;51.678;6.610;2022-09-23T12:22:21;18.00;1.00
16249;DHT22;8232;51.678;6.610;2022-09-23T12:24:54;18.50;1.00
16249;DHT22;8232;51.678;6.610;2022-09-23T12:27:28;18.80;1.00
16249;DHT22;8232;51.678;6.610;2022-09-23T12:30:00;18.30;1.00
16249;DHT22;8232;51.678;6.610;2022-09-23T12:32:29;18.40;1.00
16249;DHT22;8232;51.678;6.610;2022-09-23T12:34:57;18.80;1.00
16249;DHT22;8232;51.678;6.610;2022-09-23T12:37:27;18.80;1.00
16249;DHT22;8232;51.678;6.610;2022-09-23T12:39:58;18.60;1.00
16249;DHT22;8232;51.678;6.610;2022-09-23T12:42:27;18.80;1.00
16249;DHT22;8232;51.678;6.610;2022-09-23T12:45:34;19.00;1.00
16249;DHT22;8232;51.678;6.610;2022-09-23T12:48:06;19.30;1.00
16249;DHT22;8232;51.678;6.610;2022-09-23T12:51:11;19.10;1.00
16249;DHT22;8232;51.678;6.610;2022-09-23T12:53:55;19.20;1.00
16249;DHT22;8232;51.678;6.610;2022-09-23T12:56:25;19.20;1.00
16249;DHT22;8232;51.678;6.610;2022-09-23T12:59:22;18.90;1.00
16249;DHT22;8232;51.678;6.610;2022-09-23T13:01:50;19.10;1.00
16249;DHT22;8232;51.678;6.610;2022-09-23T13:04:30;18.90;1.00
16249;DHT22;8232;51.678;6.610;2022-09-23T13:07:17;18.90;1.00
16249;DHT22;8232;51.678;6.610;2022-09-23T13:09:47;18.90;1.00
16249;DHT22;8232;51.678;6.610;2022-09-23T13:12:18;18.70;1.00
16249;DHT22;8232;51.678;6.610;2022-09-23T13:14:48;18.70;1.00
16249;DHT22;8232;51.678;6.610;2022-09-23T13:17:25;18.80;1.00
16249;DHT22;8232;51.678;6.610;2022-09-23T13:20:00;18.60;1.00
16249;DHT22;8232;51.678;6.610;2022-09-23T13:25:41;18.70;1.00
16249;DHT22;8232;51.678;6.610;2022-09-23T13:28:18;19.00;1.00
16249;DHT22;8232;51.678;6.610;2022-09-23T13:30:48;18.90;1.00
16249;DHT22;8232;51.678;6.610;2022-09-23T13:33:24;18.70;1.00
16249;DHT22;8232;51.678;6.610;2022-09-23T13:35:56;18.90;1.00
16249;DHT22;8232;51.678;6.610;2022-09-23T13:38:29;18.80;1.00
16249;DHT22;8232;51.678;6.610;2022-09-23T13:40:59;19.00;1.00
16249;DHT22;8232;51.678;6.610;2022-09-23T13:43:30;19.10;1.00
16249;DHT22;8232;51.678;6.610;2022-09-23T13:45:59;19.00;1.00
16249;DHT22;8232;51.678;6.610;2022-09-23T13:48:26;19.00;1.00
16249;DHT22;8232;51.678;6.610;2022-09-23T13:50:55;18.90;1.00
16249;DHT22;8232;51.678;6.610;2022-09-23T13:53:24;18.90;1.00
16249;DHT22;8232;51.678;6.610;2022-09-23T13:56:02;18.70;1.00
16249;DHT22;8232;51.678;6.610;2022-09-23T13:58:31;18.60;1.00
16249;DHT22;8232;51.678;6.610;2022-09-23T14:00:58;18.60;1.00
16249;DHT22;8232;51.678;6.610;2022-09-23T14:03:27;18.60;1.00
16249;DHT22;8232;51.678;6.610;2022-09-23T14:05:58;18.60;1.00
16249;DHT22;8232;51.678;6.610;2022-09-23T14:08:26;18.60;1.00
16249;DHT22;8232;51.678;6.610;2022-09-23T14:10:54;18.60;1.00
16249;DHT22;8232;51.678;6.610;2022-09-23T14:13:23;18.60;1.00
16249;DHT22;8232;51.678;6.610;2022-09-23T14:15:53;18.50;1.00
16249;DHT22;8232;51.678;6.610;2022-09-23T14:18:27;18.60;1.00
16249;DHT22;8232;51.678;6.610;2022-09-23T14:20:57;18.50;1.00
16249;DHT22;8232;51.678;6.610;2022-09-23T14:23:24;18.50;1.00
16249;DHT22;8232;51.678;6.610;2022-09-23T14:25:51;18.40;1.00
16249;DHT22;8232;51.678;6.610;2022-09-23T14:28:21;18.40;1.00
16249;DHT22;8232;51.678;6.610;2022-09-23T14:30:50;18.40;1.00
16249;DHT22;8232;51.678;6.610;2022-09-23T14:33:22;18.30;1.00
16249;DHT22;8232;51.678;6.610;2022-09-23T14:35:52;18.30;1.00
16249;DHT22;8232;51.678;6.610;2022-09-23T14:38:24;18.30;1.00
16249;DHT22;8232;51.678;6.610;2022-09-23T14:41:17;18.30;1.00
16249;DHT22;8232;51.678;6.610;2022-09-23T14:43:48;18.50;1.00
16249;DHT22;8232;51.678;6.610;2022-09-23T14:46:17;18.20;1.00
16249;DHT22;8232;51.678;6.610;2022-09-23T14:48:53;18.20;1.00
16249;DHT22;8232;51.678;6.610;2022-09-23T14:51:21;18.00;1.00
16249;DHT22;8232;51.678;6.610;2022-09-23T14:53:55;18.00;1.00
16249;DHT22;8232;51.678;6.610;2022-09-23T14:56:42;18.10;1.00
16249;DHT22;8232;51.678;6.610;2022-09-23T14:59:23;18.10;1.00
16249;DHT22;8232;51.678;6.610;2022-09-23T15:01:51;18.00;1.00
16249;DHT22;8232;51.678;6.610;2022-09-23T15:04:28;18.10;1.00
16249;DHT22;8232;51.678;6.610;2022-09-23T15:06:58;18.00;1.00
16249;DHT22;8232;51.678;6.610;2022-09-23T15:09:30;18.00;1.00
16249;DHT22;8232;51.678;6.610;2022-09-23T15:11:59;18.00;1.00
16249;DHT22;8232;51.678;6.610;2022-09-23T15:14:29;17.90;1.00
16249;DHT22;8232;51.678;6.610;2022-09-23T15:16:59;17.80;1.00
16249;DHT22;8232;51.678;6.610;2022-09-23T15:19:28;17.70;1.00
16249;DHT22;8232;51.678;6.610;2022-09-23T15:21:56;17.70;1.00
16249;DHT22;8232;51.678;6.610;2022-09-23T15:24:36;17.70;1.00
16249;DHT22;8232;51.678;6.610;2022-09-23T15:27:21;17.70;1.00
16249;DHT22;8232;51.678;6.610;2022-09-23T15:29:50;17.70;1.00
16249;DHT22;8232;51.678;6.610;2022-09-23T15:32:18;17.60;1.00
16249;DHT22;8232;51.678;6.610;2022-09-23T15:34:47;17.60;1.00
16249;DHT22;8232;51.678;6.610;2022-09-23T15:37:15;17.50;1.00
16249;DHT22;8232;51.678;6.610;2022-09-23T15:39:43;17.50;1.00
16249;DHT22;8232;51.678;6.610;2022-09-23T15:42:10;17.40;1.00
16249;DHT22;8232;51.678;6.610;2022-09-23T15:44:37;17.40;1.00
16249;DHT22;8232;51.678;6.610;2022-09-23T15:47:04;17.40;1.00
16249;DHT22;8232;51.678;6.610;2022-09-23T15:49:35;17.40;1.00
16249;DHT22;8232;51.678;6.610;2022-09-23T15:52:04;17.40;1.00
16249;DHT22;8232;51.678;6.610;2022-09-23T15:54:31;17.40;1.00
16249;DHT22;8232;51.678;6.610;2022-09-23T15:57:00;17.40;1.00
16249;DHT22;8232;51.678;6.610;2022-09-23T15:59:27;17.30;1.00
16249;DHT22;8232;51.678;6.610;2022-09-23T16:01:56;17.30;1.00
16249;DHT22;8232;51.678;6.610;2022-09-23T16:04:23;17.30;1.00
16249;DHT22;8232;51.678;6.610;2022-09-23T16:06:51;17.20;1.00
16249;DHT22;8232;51.678;6.610;2022-09-23T16:09:18;17.20;1.00
16249;DHT22;8232;51.678;6.610;2022-09-23T16:11:46;17.20;1.00
16249;DHT22;8232;51.678;6.610;2022-09-23T16:14:16;17.10;1.00
16249;DHT22;8232;51.678;6.610;2022-09-23T16:16:43;17.10;1.00
16249;DHT22;8232;51.678;6.610;2022-09-23T16:19:12;17.10;1.00
16249;DHT22;8232;51.678;6.610;2022-09-23T16:21:39;17.10;1.00
16249;DHT22;8232;51.678;6.610;2022-09-23T16:24:15;17.00;1.00
16249;DHT22;8232;51.678;6.610;2022-09-23T16:26:43;17.00;1.00
16249;DHT22;8232;51.678;6.610;2022-09-23T16:29:11;17.00;1.00
16249;DHT22;8232;51.678;6.610;2022-09-23T16:31:39;16.90;1.00
16249;DHT22;8232;51.678;6.610;2022-09-23T16:34:06;16.90;1.00
16249;DHT22;8232;51.678;6.610;2022-09-23T16:36:34;16.90;1.00
16249;DHT22;8232;51.678;6.610;2022-09-23T16:39:05;16.80;1.00
16249;DHT22;8232;51.678;6.610;2022-09-23T16:41:32;16.80;1.00
16249;DHT22;8232;51.678;6.610;2022-09-23T16:44:02;16.80;1.00